createdAt,value
2022-08-28T00:07:04.291Z,17.049361591692588
2022-08-28T00:22:21.295Z,17.18341078905758
2022-08-28T00:37:37.267Z,17.355547239962565
2022-08-28T00:52:54.234Z,17.442503671559866
2022-08-28T01:08:11.356Z,17.7724653593486
2022-08-28T01:23:29.168Z,17.850102837854276
2022-08-28T01:38:45.136Z,18.03814089837094
2022-08-28T01:54:01.101Z,18.14596834389878
2022-08-28T02:09:14.408Z,17.851943264478205
2022-08-28T02:24:30.044Z,18.03657562605566
2022-08-28T02:39:46.979Z,18.421363028215524
2022-08-28T02:55:02.978Z,18.55314283628781
2022-08-28T03:10:19.921Z,18.748924258904513
2022-08-28T03:25:35.923Z,18.84395961092062
2022-08-28T03:40:51.886Z,19.04836279022842
2022-08-28T03:56:08.822Z,18.978857186758372
2022-08-28T04:11:26.799Z,18.988786566863567
2022-08-28T04:26:43.766Z,18.973124823487662
2022-08-28T04:41:59.769Z,18.913588128482587
2022-08-28T04:57:15.698Z,19.102521207487893
2022-08-28T05:12:32.673Z,18.883819740753676
2022-08-28T05:27:48.649Z,18.6117568493369
2022-08-28T05:43:04.648Z,18.392573501338386
2022-08-28T05:58:21.577Z,17.86955102942729
2022-08-28T06:13:39.548Z,17.726854147045316
2022-08-28T06:28:56.522Z,17.72648229717314
2022-08-28T06:44:12.519Z,18.35470856130871
2022-08-28T06:59:28.445Z,18.38099325858231
2022-08-28T07:14:45.427Z,18.32224723767814
2022-08-28T07:30:01.415Z,18.374275897924633
2022-08-28T07:45:18.392Z,18.08550247083101
2022-08-28T08:00:35.320Z,17.915580592504245
2022-08-28T08:01:20.307Z,17.915580592504245
2022-08-28T08:15:54.407Z,17.966791361809598
2022-08-28T08:31:10.369Z,18.111163188815535
2022-08-28T08:46:26.330Z,18.283957822197287
2022-08-28T09:01:42.289Z,18.254319320438785
2022-08-28T09:16:59.197Z,17.970176809212926
2022-08-28T09:32:16.157Z,17.776476082343933
2022-08-28T09:47:33.098Z,17.841641497447462
2022-08-28T10:02:49.055Z,17.775343308053795
2022-08-28T10:18:06.047Z,17.82371962471601
2022-08-28T10:33:21.989Z,17.19251867849767
2022-08-28T10:48:37.954Z,17.114147865957847
2022-08-28T11:03:53.924Z,16.921867833735707
2022-08-28T11:19:10.891Z,17.07544040883101
2022-08-28T11:34:27.860Z,16.816669590019092
2022-08-28T11:49:44.833Z,16.638624789410557
2022-08-28T12:05:00.804Z,16.570431142649095
2022-08-28T12:20:17.768Z,17.332236049097535
2022-08-28T12:35:33.727Z,17.21412636439746
2022-08-28T12:50:49.733Z,16.88763933613758
2022-08-28T13:06:05.664Z,16.843233574926693
2022-08-28T13:21:32.604Z,16.970388051919336
2022-08-28T13:36:40.605Z,16.746231036908203
2022-08-28T13:51:57.650Z,16.467241700904935
2022-08-28T14:07:13.538Z,16.247061517763715
2022-08-28T14:22:30.624Z,16.23753570697746
2022-08-28T14:37:46.528Z,15.901603984502064
2022-08-28T14:53:02.484Z,15.956385356568466
2022-08-28T15:08:19.458Z,15.612802753974835
2022-08-28T15:23:37.436Z,15.858095321857396
2022-08-28T15:38:54.390Z,15.813969593254658
2022-08-28T15:54:10.356Z,15.572827873254223
2022-08-28T16:09:26.329Z,15.453773452703985
2022-08-28T16:24:43.303Z,15.347302276507863
2022-08-28T16:39:59.301Z,15.342274139660242
2022-08-28T16:55:15.253Z,15.208735796905236
2022-08-28T17:10:32.214Z,15.004608193875606
2022-08-28T17:25:50.177Z,15.032282459735969
2022-08-28T17:41:07.149Z,14.99476384062852
2022-08-28T17:56:23.080Z,14.972581775618734
2022-08-28T18:11:39.113Z,14.911942548824399
2022-08-28T18:26:56.016Z,15.07597996703674
2022-08-28T18:42:12.015Z,14.868333625856677
2022-08-28T18:57:27.955Z,14.692866482470926
2022-08-28T19:12:44.949Z,15.230839561462535
2022-08-28T19:28:02.884Z,15.825840462336494
2022-08-28T19:43:19.890Z,15.999260248580343
2022-08-28T19:58:35.826Z,16.196760352709084
2022-08-28T20:13:51.827Z,15.941456754878743
2022-08-28T20:29:08.763Z,15.776936053421515
2022-08-28T20:44:24.760Z,15.647780749802033
2022-08-28T20:59:41.695Z,16.252640883425048
2022-08-28T21:14:59.662Z,15.99967409173787
2022-08-28T21:30:16.634Z,16.21808702164178
2022-08-28T21:45:32.640Z,16.342355293003706
2022-08-28T22:00:48.602Z,16.3821737567738
2022-08-28T22:16:05.537Z,16.65820887074082
2022-08-28T22:31:21.536Z,16.81300016491101
2022-08-28T22:46:37.473Z,17.2396333290915
2022-08-28T23:01:54.474Z,17.23096161018712
2022-08-28T23:17:12.414Z,16.971860052367752
2022-08-28T23:32:29.381Z,16.951678747019244
2022-08-28T23:47:45.344Z,16.99184966270294
